EBCI

Brussels South Charleroi Airport

Brussels, Belgium
TAF EBCI 162305Z 1700/1806 24004KT 9999 FEW040TCU
Issued Valid From Valid To
Jul-16 @ 23:05 UTC
(an hour ago)
Jul-17 @ 00:00 UTC
(23 minutes ago)
Jul-18 @ 06:00 UTC
(-1 days ago)
Jul-17 @ 00:00 to Jul-18 @ 06:00
TAF EBCI 162305Z 1700/1806 24004KT 9999 FEW040TCU
Wind Visibility Clouds
240° at 4 knots 10,000+ meters
  • Few at 4,000' AGL
TAF EBCI 162305Z 1700/1806 24004KT 9999 FEW040TCU
Issued Jul-16 @ 23:05 UTC
(an hour ago)
Valid From Jul-17 @ 00:00 UTC
(23 minutes ago)
Valid To Jul-18 @ 06:00 UTC
(-1 days ago)
Jul-17 @ 00:00 - Jul-18 @ 06:00
Wind Visibility
240° at 4 knots 10,000+ meters
Clouds
  • Few at 4,000' AGL